createdAt,value
2023-04-23T00:00:31.063Z,9.90
2023-04-23T00:02:58.815Z,9.80
2023-04-23T00:05:27.859Z,9.80
2023-04-23T00:07:54.904Z,9.80
2023-04-23T00:10:22.406Z,9.80
2023-04-23T00:12:49.162Z,9.80
2023-04-23T00:15:16.434Z,9.80
2023-04-23T00:17:42.885Z,9.80
2023-04-23T00:20:09.915Z,9.80
2023-04-23T00:22:36.389Z,9.80
2023-04-23T00:25:03.315Z,9.80
2023-04-23T00:27:29.765Z,9.80
2023-04-23T00:29:56.630Z,9.80
2023-04-23T00:32:23.083Z,9.90
2023-04-23T00:34:49.934Z,9.90
2023-04-23T00:37:16.563Z,9.90
2023-04-23T00:39:43.730Z,9.90
2023-04-23T00:42:10.753Z,9.90
2023-04-23T00:44:37.992Z,9.90
2023-04-23T00:47:06.524Z,9.90
2023-04-23T00:49:33.861Z,9.90
2023-04-23T00:52:00.785Z,10.00
2023-04-23T00:54:27.709Z,10.00
2023-04-23T00:56:55.811Z,9.90
2023-04-23T00:59:22.578Z,9.90
2023-04-23T01:01:49.119Z,9.90
2023-04-23T01:04:17.803Z,9.90
2023-04-23T01:06:45.383Z,9.80
2023-04-23T01:09:12.211Z,9.80
2023-04-23T01:11:42.124Z,9.80
2023-04-23T01:14:10.388Z,9.80
2023-04-23T01:16:37.998Z,9.90
2023-04-23T01:19:06.594Z,9.80
2023-04-23T01:21:34.990Z,9.90
2023-04-23T01:24:03.258Z,9.80
2023-04-23T01:26:29.877Z,9.80
2023-04-23T01:28:57.100Z,9.80
2023-04-23T01:31:24.232Z,9.80
2023-04-23T01:33:53.125Z,9.70
2023-04-23T01:36:20.485Z,9.70
2023-04-23T01:38:47.341Z,9.70
2023-04-23T01:41:13.950Z,9.70
2023-04-23T01:43:42.661Z,9.60
2023-04-23T01:46:09.653Z,9.50
2023-04-23T01:48:37.358Z,9.50
2023-04-23T01:51:04.024Z,9.50
2023-04-23T01:53:31.506Z,9.40
2023-04-23T01:55:59.213Z,9.40
2023-04-23T01:58:26.126Z,9.40
2023-04-23T02:00:52.942Z,9.40
2023-04-23T02:03:19.570Z,9.30
2023-04-23T02:05:46.574Z,9.30
2023-04-23T02:08:13.043Z,9.30
2023-04-23T02:10:39.868Z,9.30
2023-04-23T02:13:06.334Z,9.30
2023-04-23T02:15:33.191Z,9.30
2023-04-23T02:17:59.752Z,9.30
2023-04-23T02:20:26.728Z,9.30
2023-04-23T02:22:53.218Z,9.20
2023-04-23T02:25:20.180Z,9.20
2023-04-23T02:27:46.638Z,9.30
2023-04-23T02:30:13.694Z,9.30
2023-04-23T02:32:40.390Z,9.20
2023-04-23T02:35:07.473Z,9.30
2023-04-23T02:37:33.945Z,9.30
2023-04-23T02:40:00.745Z,9.30
2023-04-23T02:42:27.621Z,9.20
2023-04-23T02:44:54.050Z,9.30
2023-04-23T02:47:20.544Z,9.20
2023-04-23T02:49:47.402Z,9.20
2023-04-23T02:52:13.855Z,9.20
2023-04-23T02:54:40.829Z,9.20
2023-04-23T02:57:07.444Z,9.20
2023-04-23T02:59:34.385Z,9.20
2023-04-23T03:02:00.939Z,9.20
2023-04-23T03:04:27.848Z,9.20
2023-04-23T03:06:54.738Z,9.20
2023-04-23T03:09:21.187Z,9.20
2023-04-23T03:11:48.413Z,9.20
2023-04-23T03:14:14.886Z,9.30
2023-04-23T03:16:41.791Z,9.20
2023-04-23T03:19:08.362Z,9.30
2023-04-23T03:21:37.174Z,9.30
2023-04-23T03:24:04.353Z,9.30
2023-04-23T03:26:31.167Z,9.30
2023-04-23T03:28:58.072Z,9.30
2023-04-23T03:31:24.602Z,9.30
2023-04-23T03:33:51.533Z,9.30
2023-04-23T03:36:18.233Z,9.30
2023-04-23T03:38:45.016Z,9.30
2023-04-23T03:41:11.847Z,9.40
2023-04-23T03:43:38.314Z,9.40
2023-04-23T03:46:05.249Z,9.40
2023-04-23T03:48:31.739Z,9.40
2023-04-23T03:50:58.828Z,9.30
2023-04-23T03:53:25.281Z,9.30
2023-04-23T03:55:52.067Z,9.30
2023-04-23T03:58:18.550Z,9.30
2023-04-23T04:00:45.654Z,9.30
2023-04-23T04:03:12.650Z,9.30
2023-04-23T04:05:39.319Z,9.30
2023-04-23T04:08:06.155Z,9.30
2023-04-23T04:10:32.601Z,9.30
2023-04-23T04:12:59.394Z,9.30
2023-04-23T04:15:25.956Z,9.30
2023-04-23T04:17:52.924Z,9.30
2023-04-23T04:20:19.536Z,9.20
2023-04-23T04:22:46.356Z,9.20
2023-04-23T04:25:12.801Z,9.30
2023-04-23T04:27:39.768Z,9.20
2023-04-23T04:30:07.584Z,9.20
2023-04-23T04:32:34.496Z,9.20
2023-04-23T04:35:00.986Z,9.20
2023-04-23T04:37:27.694Z,9.30
2023-04-23T04:39:54.407Z,9.30
2023-04-23T04:42:20.866Z,9.30
2023-04-23T04:44:47.286Z,9.30
2023-04-23T04:47:14.105Z,9.30
2023-04-23T04:49:40.882Z,9.30
2023-04-23T04:52:07.724Z,9.30
2023-04-23T04:54:34.528Z,9.40
2023-04-23T04:57:01.333Z,9.40
2023-04-23T04:59:28.233Z,9.40
2023-04-23T05:01:55.050Z,9.50
2023-04-23T05:04:21.567Z,9.60
2023-04-23T05:06:48.331Z,9.70
2023-04-23T05:09:15.168Z,9.90
2023-04-23T05:11:41.836Z,10.10
2023-04-23T05:14:08.791Z,10.30
2023-04-23T05:16:35.333Z,10.50
2023-04-23T05:19:01.830Z,10.70
2023-04-23T05:21:28.384Z,10.80
2023-04-23T05:23:55.826Z,10.90
2023-04-23T05:26:22.390Z,11.00
2023-04-23T05:28:49.164Z,11.10
2023-04-23T05:31:15.711Z,11.20
2023-04-23T05:33:49.339Z,11.20
2023-04-23T05:36:17.503Z,11.30
2023-04-23T05:38:44.271Z,11.30
2023-04-23T05:41:10.912Z,11.40
2023-04-23T05:43:37.734Z,11.50
2023-04-23T05:46:04.286Z,11.50
2023-04-23T05:48:30.729Z,11.60
2023-04-23T05:50:57.769Z,11.60
2023-04-23T05:53:24.334Z,11.70
2023-04-23T05:55:51.142Z,11.80
2023-04-23T05:58:17.930Z,11.90
2023-04-23T06:00:44.702Z,12.00
2023-04-23T06:03:11.630Z,12.10
2023-04-23T06:05:38.208Z,12.20
2023-04-23T06:08:04.777Z,12.30
2023-04-23T06:10:31.250Z,12.30
2023-04-23T06:12:57.753Z,12.40
2023-04-23T06:15:24.229Z,12.50
2023-04-23T06:17:50.999Z,12.60
2023-04-23T06:20:17.628Z,12.60
2023-04-23T06:22:44.414Z,12.70
2023-04-23T06:25:10.875Z,12.80
2023-04-23T06:27:37.495Z,12.90
2023-04-23T06:30:05.035Z,12.90
2023-04-23T06:32:31.512Z,13.20
2023-04-23T06:35:01.332Z,14.00
2023-04-23T06:37:29.781Z,14.90
2023-04-23T06:39:56.509Z,15.60
2023-04-23T06:42:22.991Z,16.50
2023-04-23T06:44:49.829Z,17.40
2023-04-23T06:47:16.614Z,18.20
2023-04-23T06:49:43.073Z,19.30
2023-04-23T06:52:09.904Z,20.10
2023-04-23T06:54:36.726Z,20.80
2023-04-23T06:57:03.559Z,21.30
2023-04-23T06:59:30.005Z,21.50
2023-04-23T07:01:56.888Z,21.80
2023-04-23T07:04:23.829Z,22.40
2023-04-23T07:06:50.301Z,22.70
2023-04-23T07:09:17.219Z,23.00
2023-04-23T07:11:43.724Z,23.00
2023-04-23T07:14:10.460Z,23.40
2023-04-23T07:16:36.977Z,23.60
2023-04-23T07:19:03.872Z,24.10
2023-04-23T07:21:30.341Z,24.60
2023-04-23T07:23:57.649Z,24.80
2023-04-23T07:26:25.025Z,25.10
2023-04-23T07:28:52.799Z,25.50
2023-04-23T07:31:19.814Z,25.70
2023-04-23T07:33:46.278Z,25.80
2023-04-23T07:36:13.106Z,26.10
2023-04-23T07:38:39.575Z,26.30
2023-04-23T07:41:06.739Z,26.30
2023-04-23T07:43:33.676Z,26.30
2023-04-23T07:46:00.222Z,26.50
2023-04-23T07:48:27.099Z,26.20
2023-04-23T07:50:54.333Z,26.20
2023-04-23T07:53:21.642Z,25.90
2023-04-23T07:55:48.144Z,25.60
2023-04-23T07:58:14.614Z,25.70
2023-04-23T08:00:41.108Z,25.90
2023-04-23T08:03:07.920Z,25.90
2023-04-23T08:05:34.552Z,26.10
2023-04-23T08:08:01.446Z,26.30
2023-04-23T08:10:27.886Z,26.70
2023-04-23T08:12:54.837Z,27.30
2023-04-23T08:15:21.744Z,27.30
2023-04-23T08:17:48.238Z,27.40
2023-04-23T08:20:15.267Z,27.10
2023-04-23T08:22:41.881Z,27.10
2023-04-23T08:25:08.878Z,27.20
2023-04-23T08:27:35.506Z,27.10
2023-04-23T08:30:02.488Z,27.20
2023-04-23T08:32:29.407Z,26.90
2023-04-23T08:34:56.189Z,27.00
2023-04-23T08:37:30.183Z,26.90
2023-04-23T08:39:57.578Z,26.90
2023-04-23T08:42:35.439Z,27.30
2023-04-23T08:45:03.856Z,27.50
2023-04-23T08:47:32.365Z,27.90
2023-04-23T08:50:00.015Z,27.90
2023-04-23T08:52:29.497Z,28.00
2023-04-23T08:55:00.587Z,27.80
2023-04-23T08:57:28.008Z,27.30
2023-04-23T08:59:55.410Z,27.00
2023-04-23T09:02:22.878Z,27.20
2023-04-23T09:04:51.757Z,27.20
2023-04-23T09:07:19.174Z,27.00
2023-04-23T09:09:45.641Z,27.10
2023-04-23T09:12:12.138Z,26.60
2023-04-23T09:14:38.595Z,26.60
2023-04-23T09:17:05.075Z,26.30
2023-04-23T09:19:31.608Z,26.00
2023-04-23T09:21:59.029Z,25.60
2023-04-23T09:24:25.855Z,25.80
2023-04-23T09:26:53.033Z,25.90
2023-04-23T09:29:21.228Z,25.80
2023-04-23T09:31:49.898Z,25.50
2023-04-23T09:34:17.832Z,25.40
2023-04-23T09:36:45.642Z,25.70
2023-04-23T09:39:13.947Z,26.30
2023-04-23T09:41:40.865Z,26.90
2023-04-23T09:44:07.419Z,27.20
2023-04-23T09:46:35.466Z,26.80
2023-04-23T09:49:05.826Z,26.30
2023-04-23T09:51:32.658Z,25.60
2023-04-23T09:54:01.986Z,25.00
2023-04-23T09:56:29.877Z,24.60
2023-04-23T09:58:56.366Z,24.30
2023-04-23T10:01:29.824Z,24.00
2023-04-23T10:03:56.628Z,24.00
2023-04-23T10:08:57.683Z,25.00
2023-04-23T10:11:25.333Z,25.10
2023-04-23T10:13:53.766Z,25.20
2023-04-23T10:16:24.415Z,25.10
2023-04-23T10:18:53.899Z,25.50
2023-04-23T10:21:24.605Z,25.60
2023-04-23T10:23:51.708Z,25.40
2023-04-23T10:26:21.545Z,25.10
2023-04-23T10:28:50.705Z,24.80
2023-04-23T10:31:19.608Z,24.40
2023-04-23T10:33:58.568Z,24.10
2023-04-23T10:36:27.355Z,23.90
2023-04-23T10:38:58.822Z,23.50
2023-04-23T10:41:34.959Z,23.40
2023-04-23T10:44:02.267Z,23.30
2023-04-23T10:46:30.669Z,22.80
2023-04-23T10:49:10.131Z,22.60
2023-04-23T10:54:07.485Z,22.00
2023-04-23T10:56:34.095Z,21.70
2023-04-23T10:59:00.606Z,21.50
2023-04-23T11:01:31.061Z,21.40
2023-04-23T11:03:58.060Z,21.40
2023-04-23T11:06:47.526Z,21.50
2023-04-23T11:09:37.471Z,21.70
2023-04-23T11:12:07.845Z,22.00
2023-04-23T11:14:51.339Z,22.20
2023-04-23T11:17:30.855Z,22.30
2023-04-23T11:20:20.152Z,22.40
2023-04-23T11:22:50.751Z,22.20
2023-04-23T11:25:22.251Z,22.20
2023-04-23T11:27:51.650Z,22.20
2023-04-23T11:30:30.160Z,22.30
2023-04-23T11:32:57.907Z,22.40
2023-04-23T11:35:26.149Z,22.20
2023-04-23T11:37:52.587Z,22.10
2023-04-23T11:40:19.619Z,22.00
2023-04-23T11:42:48.139Z,21.90
2023-04-23T11:45:15.186Z,21.90
2023-04-23T11:47:42.088Z,22.10
2023-04-23T11:50:09.008Z,22.20
2023-04-23T11:52:36.051Z,22.20
2023-04-23T11:55:06.389Z,22.40
2023-04-23T11:57:36.357Z,22.50
2023-04-23T12:00:12.164Z,22.60
2023-04-23T12:02:38.852Z,22.60
2023-04-23T12:05:07.318Z,22.70
2023-04-23T12:07:34.924Z,22.80
2023-04-23T12:10:01.413Z,23.00
2023-04-23T12:12:35.231Z,23.10
2023-04-23T12:15:08.292Z,23.20
2023-04-23T12:17:35.218Z,23.10
2023-04-23T12:20:05.108Z,22.90
2023-04-23T12:22:31.620Z,22.80
2023-04-23T12:24:58.208Z,22.60
2023-04-23T12:27:24.770Z,22.40
2023-04-23T12:30:04.886Z,22.40
2023-04-23T12:32:33.794Z,22.20
2023-04-23T12:35:00.737Z,22.20
2023-04-23T12:37:30.475Z,22.30
2023-04-23T12:39:57.446Z,22.30
2023-04-23T12:42:24.216Z,22.10
2023-04-23T12:44:51.733Z,22.00
2023-04-23T12:47:18.442Z,21.80
2023-04-23T12:49:45.949Z,21.60
2023-04-23T12:52:14.037Z,21.40
2023-04-23T12:54:40.956Z,21.10
2023-04-23T12:57:10.860Z,20.90
2023-04-23T12:59:37.306Z,21.00
2023-04-23T13:02:04.250Z,21.20
2023-04-23T13:04:33.057Z,21.30
2023-04-23T13:07:00.166Z,21.50
2023-04-23T13:09:28.526Z,21.50
2023-04-23T13:11:55.468Z,21.60
2023-04-23T13:14:22.110Z,21.60
2023-04-23T13:16:48.999Z,21.50
2023-04-23T13:19:15.679Z,21.40
2023-04-23T13:21:42.150Z,21.20
2023-04-23T13:24:08.984Z,21.30
2023-04-23T13:26:35.477Z,21.40
2023-04-23T13:29:02.418Z,21.20
2023-04-23T13:31:29.585Z,21.30
2023-04-23T13:33:56.366Z,21.10
2023-04-23T13:36:23.943Z,21.20
2023-04-23T13:38:50.472Z,21.30
2023-04-23T13:41:17.386Z,21.40
2023-04-23T13:43:43.833Z,21.50
2023-04-23T13:46:10.778Z,21.50
2023-04-23T13:48:37.300Z,21.40
2023-04-23T13:51:09.050Z,21.40
2023-04-23T13:53:43.702Z,21.30
2023-04-23T13:56:10.507Z,21.30
2023-04-23T13:58:37.426Z,21.30
2023-04-23T14:01:04.548Z,21.20
2023-04-23T14:03:31.599Z,21.00
2023-04-23T14:05:58.479Z,21.00
2023-04-23T14:08:24.995Z,20.70
2023-04-23T14:10:51.896Z,20.60
2023-04-23T14:13:18.331Z,20.40
2023-04-23T14:15:45.233Z,20.40
2023-04-23T14:18:11.764Z,20.30
2023-04-23T14:20:38.624Z,20.30
2023-04-23T14:23:43.158Z,20.40
2023-04-23T14:26:10.361Z,20.50
2023-04-23T14:28:44.418Z,20.60
2023-04-23T14:31:11.323Z,20.70
2023-04-23T14:33:37.860Z,20.70
2023-04-23T14:36:04.886Z,20.70
2023-04-23T14:38:31.327Z,20.70
2023-04-23T14:40:57.962Z,20.70
2023-04-23T14:43:24.431Z,20.70
2023-04-23T14:45:51.296Z,20.70
2023-04-23T14:48:17.782Z,20.80
2023-04-23T14:50:44.600Z,20.70
2023-04-23T14:53:11.173Z,20.70
2023-04-23T14:55:37.727Z,20.60
2023-04-23T14:58:04.398Z,20.60
2023-04-23T15:00:31.259Z,20.50
2023-04-23T15:02:57.883Z,20.40
2023-04-23T15:05:24.720Z,20.20
2023-04-23T15:07:51.182Z,20.10
2023-04-23T15:10:18.078Z,19.90
2023-04-23T15:13:01.465Z,19.70
2023-04-23T15:15:44.880Z,19.50
2023-04-23T15:18:15.595Z,19.30
2023-04-23T15:20:44.254Z,19.20
2023-04-23T15:23:10.817Z,19.10
2023-04-23T15:25:37.675Z,18.90
2023-04-23T15:28:04.554Z,18.70
2023-04-23T15:30:31.606Z,18.60
2023-04-23T15:32:58.218Z,18.50
2023-04-23T15:35:26.172Z,18.40
2023-04-23T15:37:53.797Z,18.30
2023-04-23T15:40:20.609Z,18.20
2023-04-23T15:42:47.158Z,17.80
2023-04-23T15:45:13.640Z,17.30
2023-04-23T15:47:40.330Z,16.70
2023-04-23T15:50:08.539Z,16.10
2023-04-23T15:52:35.166Z,15.80
2023-04-23T15:55:01.722Z,15.50
2023-04-23T15:57:28.369Z,15.30
2023-04-23T15:59:54.840Z,15.10
2023-04-23T16:02:21.960Z,15.00
2023-04-23T16:04:48.948Z,14.80
2023-04-23T16:07:15.474Z,14.80
2023-04-23T16:09:42.307Z,14.80
2023-04-23T16:12:09.043Z,14.70
2023-04-23T16:14:37.116Z,14.60
2023-04-23T16:17:03.690Z,14.70
2023-04-23T16:19:30.622Z,14.60
2023-04-23T16:21:57.122Z,14.60
2023-04-23T16:24:23.604Z,14.60
2023-04-23T16:26:50.406Z,14.60
2023-04-23T16:29:22.849Z,14.60
2023-04-23T16:31:50.100Z,14.60
2023-04-23T16:34:16.781Z,14.60
2023-04-23T16:36:43.485Z,14.60
2023-04-23T16:39:10.132Z,14.60
2023-04-23T16:41:36.809Z,14.60
2023-04-23T16:44:03.350Z,14.60
2023-04-23T16:46:30.003Z,14.50
2023-04-23T16:48:56.642Z,14.50
2023-04-23T16:51:23.844Z,14.50
2023-04-23T16:53:50.332Z,14.40
2023-04-23T16:56:16.850Z,14.40
2023-04-23T16:58:43.868Z,14.40
2023-04-23T17:01:10.421Z,14.30
2023-04-23T17:03:37.115Z,14.20
2023-04-23T17:06:27.752Z,14.20
2023-04-23T17:08:55.360Z,14.20
2023-04-23T17:11:24.054Z,14.10
2023-04-23T17:13:51.726Z,14.10
2023-04-23T17:16:18.464Z,14.10
2023-04-23T17:18:44.975Z,14.00
2023-04-23T17:21:11.706Z,14.00
2023-04-23T17:23:38.332Z,14.00
2023-04-23T17:26:05.078Z,14.10
2023-04-23T17:28:31.603Z,14.00
2023-04-23T17:30:58.208Z,13.90
2023-04-23T17:33:24.929Z,13.90
2023-04-23T17:35:53.439Z,13.80
2023-04-23T17:38:20.716Z,13.60
2023-04-23T17:40:48.533Z,13.60
2023-04-23T17:43:15.729Z,13.70
2023-04-23T17:45:42.776Z,13.60
2023-04-23T17:48:09.484Z,13.60
2023-04-23T17:50:36.095Z,13.60
2023-04-23T17:53:02.726Z,13.60
2023-04-23T17:55:29.444Z,13.60
2023-04-23T17:57:55.967Z,13.60
2023-04-23T18:00:22.577Z,13.60
2023-04-23T18:02:49.246Z,13.60
2023-04-23T18:05:16.996Z,13.50
2023-04-23T18:07:44.411Z,13.50
2023-04-23T18:10:11.384Z,13.50
2023-04-23T18:12:38.648Z,13.40
2023-04-23T18:15:05.661Z,13.40
2023-04-23T18:17:32.589Z,13.30
2023-04-23T18:19:59.119Z,13.30
2023-04-23T18:22:25.591Z,13.40
2023-04-23T18:24:52.500Z,13.40
2023-04-23T18:27:18.966Z,13.40
2023-04-23T18:29:46.328Z,13.40
2023-04-23T18:32:20.908Z,13.40
2023-04-23T18:34:54.732Z,13.40
2023-04-23T18:37:32.011Z,13.40
2023-04-23T18:39:59.062Z,13.40
2023-04-23T18:42:25.563Z,13.40
2023-04-23T18:44:52.086Z,13.30
2023-04-23T18:47:19.004Z,13.40
2023-04-23T18:49:52.523Z,13.40
2023-04-23T18:52:19.051Z,13.40
2023-04-23T18:54:45.532Z,13.40
2023-04-23T18:57:12.009Z,13.40
2023-04-23T18:59:38.601Z,13.30
2023-04-23T19:02:05.771Z,13.30
2023-04-23T19:04:32.877Z,13.30
2023-04-23T19:07:00.491Z,13.30
2023-04-23T19:09:27.019Z,13.30
2023-04-23T19:11:54.773Z,13.30
2023-04-23T19:14:21.722Z,13.30
2023-04-23T19:16:48.589Z,13.30
2023-04-23T19:19:15.682Z,13.20
2023-04-23T19:21:42.150Z,13.20
2023-04-23T19:24:08.701Z,13.10
2023-04-23T19:26:35.452Z,13.10
2023-04-23T19:29:01.952Z,13.10
2023-04-23T19:31:29.117Z,13.10
2023-04-23T19:33:56.402Z,13.20
2023-04-23T19:36:22.859Z,13.20
2023-04-23T19:38:49.384Z,13.20
2023-04-23T19:41:15.925Z,13.30
2023-04-23T19:43:42.800Z,13.30
2023-04-23T19:46:09.368Z,13.30
2023-04-23T19:48:35.948Z,13.30
2023-04-23T19:51:02.407Z,13.30
2023-04-23T19:53:28.881Z,13.30
2023-04-23T19:55:55.330Z,13.30
2023-04-23T19:58:22.178Z,13.30
2023-04-23T20:00:48.710Z,13.30
2023-04-23T20:03:15.401Z,13.30
2023-04-23T20:05:42.148Z,13.20
2023-04-23T20:08:09.071Z,13.20
2023-04-23T20:10:35.926Z,13.20
2023-04-23T20:13:02.764Z,13.10
2023-04-23T20:15:29.225Z,13.10
2023-04-23T20:17:55.779Z,13.00
2023-04-23T20:20:22.836Z,13.00
2023-04-23T20:22:49.304Z,12.90
2023-04-23T20:25:16.168Z,12.80
2023-04-23T20:27:42.661Z,12.70
2023-04-23T20:30:11.236Z,12.60
2023-04-23T20:32:38.105Z,12.40
2023-04-23T20:35:05.638Z,12.30
2023-04-23T20:37:32.492Z,12.10
2023-04-23T20:39:58.971Z,12.00
2023-04-23T20:42:25.824Z,11.90
2023-04-23T20:44:52.537Z,11.90
2023-04-23T20:47:19.013Z,11.90
2023-04-23T20:49:45.842Z,11.80
2023-04-23T20:52:12.368Z,11.70
2023-04-23T20:54:39.118Z,11.70
2023-04-23T20:57:05.562Z,11.60
2023-04-23T20:59:32.360Z,11.50
2023-04-23T21:01:58.862Z,11.40
2023-04-23T21:04:25.821Z,11.20
2023-04-23T21:06:52.336Z,11.10
2023-04-23T21:09:18.779Z,11.00
2023-04-23T21:11:45.653Z,10.90
2023-04-23T21:14:12.502Z,10.80
2023-04-23T21:16:39.368Z,10.70
2023-04-23T21:19:06.582Z,10.70
2023-04-23T21:21:33.485Z,10.60
2023-04-23T21:24:00.267Z,10.60
2023-04-23T21:26:28.045Z,10.50
2023-04-23T21:28:54.661Z,10.50
2023-04-23T21:31:46.973Z,10.40
2023-04-23T21:34:14.377Z,10.50
2023-04-23T21:36:40.853Z,10.40
2023-04-23T21:39:07.326Z,10.40
2023-04-23T21:41:33.856Z,10.40
2023-04-23T21:44:00.312Z,10.40
2023-04-23T21:46:27.425Z,10.40
2023-04-23T21:48:54.121Z,10.50
2023-04-23T21:51:22.143Z,10.50
2023-04-23T21:53:49.404Z,10.50
2023-04-23T21:56:16.052Z,10.40
2023-04-23T21:58:43.313Z,10.50
2023-04-23T22:01:10.119Z,10.50
2023-04-23T22:03:37.719Z,10.40
2023-04-23T22:06:04.945Z,10.50
2023-04-23T22:08:32.433Z,10.40
2023-04-23T22:10:59.197Z,10.40
2023-04-23T22:13:25.696Z,10.40
2023-04-23T22:15:52.338Z,10.40
2023-04-23T22:18:18.871Z,10.50
2023-04-23T22:20:45.731Z,10.50
2023-04-23T22:23:12.172Z,10.50
2023-04-23T22:25:38.952Z,10.50
2023-04-23T22:28:05.397Z,10.50
2023-04-23T22:30:31.836Z,10.50
2023-04-23T22:32:58.908Z,10.50
2023-04-23T22:35:25.468Z,10.60
2023-04-23T22:37:52.591Z,10.60
2023-04-23T22:40:19.234Z,10.50
2023-04-23T22:42:46.062Z,10.60
2023-04-23T22:45:12.522Z,10.60
2023-04-23T22:47:39.617Z,10.60
2023-04-23T22:50:06.483Z,10.60
2023-04-23T22:52:33.322Z,10.60
2023-04-23T22:54:59.760Z,10.60
2023-04-23T22:57:26.663Z,10.70
2023-04-23T22:59:53.308Z,10.70
2023-04-23T23:02:20.079Z,10.70
2023-04-23T23:04:46.596Z,10.80
2023-04-23T23:07:13.578Z,10.70
2023-04-23T23:09:40.556Z,10.70
2023-04-23T23:12:07.319Z,10.70
2023-04-23T23:14:34.594Z,10.80
2023-04-23T23:17:01.053Z,10.80
2023-04-23T23:19:27.921Z,10.80
2023-04-23T23:21:54.745Z,10.80
2023-04-23T23:24:22.167Z,10.80
2023-04-23T23:26:49.695Z,10.70
2023-04-23T23:29:16.557Z,10.80
2023-04-23T23:31:43.491Z,10.80
2023-04-23T23:34:09.996Z,10.80
2023-04-23T23:36:36.888Z,10.80
2023-04-23T23:39:03.506Z,10.80
2023-04-23T23:41:30.321Z,10.80
2023-04-23T23:43:57.087Z,10.80
2023-04-23T23:46:23.664Z,10.80
2023-04-23T23:48:50.776Z,10.80
2023-04-23T23:51:17.237Z,10.80
2023-04-23T23:53:44.053Z,10.90
2023-04-23T23:56:10.958Z,10.90
2023-04-23T23:58:37.694Z,10.90
